createdAt,value
2018-07-02T00:00:57.158Z,0.70
2018-07-02T00:02:02.652Z,0.90
2018-07-02T00:03:08.117Z,0.73
2018-07-02T00:04:13.542Z,0.60
2018-07-02T00:05:19.014Z,0.70
2018-07-02T00:06:50.028Z,0.80
2018-07-02T00:07:55.477Z,0.70
2018-07-02T00:09:00.971Z,0.73
2018-07-02T00:10:08.387Z,0.90
2018-07-02T00:11:13.832Z,0.40
2018-07-02T00:12:20.714Z,0.57
2018-07-02T00:13:26.124Z,0.93
2018-07-02T00:14:31.747Z,0.60
2018-07-02T00:15:37.209Z,0.90
2018-07-02T00:16:42.673Z,0.60
2018-07-02T00:17:48.632Z,0.60
2018-07-02T00:18:54.021Z,1.00
2018-07-02T00:19:59.483Z,1.17
2018-07-02T00:21:04.960Z,0.60
2018-07-02T00:22:10.742Z,0.90
2018-07-02T00:23:16.644Z,0.73
2018-07-02T00:24:22.458Z,1.63
2018-07-02T00:25:27.899Z,0.87
2018-07-02T00:26:33.334Z,0.70
2018-07-02T00:27:38.833Z,0.70
2018-07-02T00:28:44.298Z,0.60
2018-07-02T00:29:49.757Z,0.70
2018-07-02T00:30:55.201Z,0.80
2018-07-02T00:32:00.622Z,0.80
2018-07-02T00:33:06.336Z,1.00
2018-07-02T00:34:11.894Z,1.07
2018-07-02T00:35:17.385Z,1.30
2018-07-02T00:36:23.045Z,1.00
2018-07-02T00:37:28.464Z,1.10
2018-07-02T00:38:34.029Z,0.80
2018-07-02T00:39:39.462Z,1.20
2018-07-02T00:40:44.932Z,1.00
2018-07-02T00:41:50.508Z,0.90
2018-07-02T00:42:55.977Z,0.93
2018-07-02T00:44:01.426Z,1.00
2018-07-02T00:45:06.921Z,1.60
2018-07-02T00:46:12.548Z,1.27
2018-07-02T00:47:17.755Z,1.30
2018-07-02T00:48:23.225Z,1.27
2018-07-02T00:49:28.663Z,1.23
2018-07-02T00:50:34.093Z,1.17
2018-07-02T00:51:39.602Z,1.70
2018-07-02T00:52:45.252Z,1.30
2018-07-02T00:53:50.769Z,0.97
2018-07-02T00:54:56.625Z,1.33
2018-07-02T00:56:02.053Z,1.10
2018-07-02T00:57:07.545Z,1.20
2018-07-02T00:58:13.142Z,1.40
2018-07-02T00:59:18.649Z,1.30
2018-07-02T01:00:24.134Z,1.40
2018-07-02T01:01:30.161Z,1.70
2018-07-02T01:02:35.696Z,1.50
2018-07-02T01:03:41.229Z,1.47
2018-07-02T01:04:46.729Z,1.60
2018-07-02T01:05:52.148Z,1.40
2018-07-02T01:06:57.841Z,1.50
2018-07-02T01:08:03.248Z,1.60
2018-07-02T01:09:10.818Z,1.43
2018-07-02T01:10:16.280Z,1.43
2018-07-02T01:11:21.850Z,1.90
2018-07-02T01:12:27.297Z,1.50
2018-07-02T01:13:32.685Z,1.40
2018-07-02T01:14:38.180Z,1.40
2018-07-02T01:15:43.675Z,1.93
2018-07-02T01:16:49.142Z,1.53
2018-07-02T01:17:54.543Z,1.60
2018-07-02T01:18:59.949Z,1.90
2018-07-02T01:20:05.451Z,1.70
2018-07-02T01:21:11.299Z,2.10
2018-07-02T01:22:16.716Z,1.57
2018-07-02T01:23:22.132Z,1.50
2018-07-02T01:24:27.702Z,1.60
2018-07-02T01:25:33.133Z,1.87
2018-07-02T01:26:38.632Z,1.50
2018-07-02T01:27:44.043Z,1.33
2018-07-02T01:28:49.444Z,1.67
2018-07-02T01:29:54.849Z,1.60
2018-07-02T01:31:00.321Z,1.53
2018-07-02T01:32:05.816Z,1.60
2018-07-02T01:33:11.271Z,1.40
2018-07-02T01:34:16.749Z,1.60
2018-07-02T01:35:22.157Z,1.80
2018-07-02T01:36:27.620Z,1.50
2018-07-02T01:37:33.013Z,1.70
2018-07-02T01:38:38.464Z,1.50
2018-07-02T01:39:43.966Z,1.43
2018-07-02T01:40:49.377Z,1.60
2018-07-02T01:41:54.756Z,1.70
2018-07-02T01:43:00.260Z,1.60
2018-07-02T01:44:05.859Z,1.73
2018-07-02T01:45:11.281Z,1.40
2018-07-02T01:46:16.708Z,2.07
2018-07-02T01:47:22.129Z,1.63
2018-07-02T01:48:27.793Z,1.43
2018-07-02T01:49:33.196Z,1.50
2018-07-02T01:50:38.681Z,1.40
2018-07-02T01:51:44.105Z,1.63
2018-07-02T01:52:49.678Z,1.67
2018-07-02T01:53:55.214Z,1.53
2018-07-02T01:55:00.647Z,1.43
2018-07-02T01:56:06.108Z,1.93
2018-07-02T01:57:11.585Z,1.80
2018-07-02T01:58:16.994Z,1.80
2018-07-02T01:59:22.307Z,1.60
2018-07-02T02:00:27.669Z,1.70
2018-07-02T02:01:32.761Z,1.83
2018-07-02T02:02:38.078Z,1.97
2018-07-02T02:03:43.566Z,1.73
2018-07-02T02:04:49.082Z,1.80
2018-07-02T02:05:54.635Z,1.50
2018-07-02T02:07:00.077Z,1.80
2018-07-02T02:08:05.897Z,1.97
2018-07-02T02:09:12.088Z,1.73
2018-07-02T02:10:17.938Z,1.50
2018-07-02T02:11:23.622Z,1.90
2018-07-02T02:12:29.146Z,1.57
2018-07-02T02:13:34.576Z,1.80
2018-07-02T02:14:39.982Z,1.63
2018-07-02T02:15:45.613Z,1.63
2018-07-02T02:16:51.079Z,1.60
2018-07-02T02:17:56.632Z,1.43
2018-07-02T02:19:02.041Z,1.40
2018-07-02T02:20:07.537Z,1.87
2018-07-02T02:21:13.120Z,1.60
2018-07-02T02:22:18.549Z,1.70
2018-07-02T02:23:24.066Z,1.63
2018-07-02T02:24:29.579Z,1.60
2018-07-02T02:25:34.992Z,1.60
2018-07-02T02:26:40.798Z,1.80
2018-07-02T02:27:46.193Z,1.77
2018-07-02T02:28:51.840Z,1.73
2018-07-02T02:29:57.238Z,1.43
2018-07-02T02:31:02.645Z,1.70
2018-07-02T02:32:08.144Z,1.83
2018-07-02T02:33:13.579Z,1.87
2018-07-02T02:34:19.023Z,1.80
2018-07-02T02:35:24.473Z,1.73
2018-07-02T02:36:29.888Z,1.53
2018-07-02T02:37:35.371Z,1.47
2018-07-02T02:38:40.893Z,1.73
2018-07-02T02:39:46.042Z,1.67
2018-07-02T02:40:51.402Z,1.37
2018-07-02T02:41:56.830Z,1.60
2018-07-02T02:43:02.013Z,1.73
2018-07-02T02:44:08.337Z,1.53
2018-07-02T02:45:13.782Z,1.47
2018-07-02T02:46:19.639Z,1.67
2018-07-02T02:47:25.065Z,1.23
2018-07-02T02:48:30.792Z,1.60
2018-07-02T02:49:36.261Z,2.00
2018-07-02T02:50:41.725Z,1.77
2018-07-02T02:51:47.184Z,1.50
2018-07-02T02:52:52.652Z,1.70
2018-07-02T02:53:58.101Z,1.50
2018-07-02T02:55:03.663Z,1.33
2018-07-02T02:56:09.186Z,1.53
2018-07-02T02:57:14.958Z,1.30
2018-07-02T02:58:20.361Z,1.70
2018-07-02T02:59:25.827Z,1.33
2018-07-02T03:00:31.277Z,1.40
2018-07-02T03:01:36.703Z,1.70
2018-07-02T03:02:42.492Z,1.40
2018-07-02T03:03:47.911Z,1.40
2018-07-02T03:04:53.383Z,1.27
2018-07-02T03:05:58.828Z,1.13
2018-07-02T03:07:04.932Z,1.60
2018-07-02T03:08:10.372Z,1.80
2018-07-02T03:09:15.804Z,1.60
2018-07-02T03:10:21.400Z,1.50
2018-07-02T03:11:26.818Z,1.30
2018-07-02T03:12:32.250Z,1.53
2018-07-02T03:13:37.653Z,1.40
2018-07-02T03:14:43.086Z,1.67
2018-07-02T03:15:48.686Z,1.67
2018-07-02T03:16:54.525Z,1.37
2018-07-02T03:18:00.005Z,1.70
2018-07-02T03:19:05.908Z,1.60
2018-07-02T03:20:11.420Z,1.10
2018-07-02T03:21:16.822Z,1.43
2018-07-02T03:22:22.230Z,1.60
2018-07-02T03:23:27.663Z,1.23
2018-07-02T03:24:33.097Z,1.67
2018-07-02T03:25:38.586Z,1.03
2018-07-02T03:26:44.006Z,1.40
2018-07-02T03:27:49.419Z,1.27
2018-07-02T03:28:54.977Z,1.37
2018-07-02T03:30:00.406Z,1.40
2018-07-02T03:31:05.919Z,1.50
2018-07-02T03:32:11.401Z,1.67
2018-07-02T03:33:16.852Z,1.10
2018-07-02T03:34:22.276Z,1.70
2018-07-02T03:35:27.716Z,1.37
2018-07-02T03:36:33.309Z,1.13
2018-07-02T03:37:38.881Z,1.30
2018-07-02T03:38:44.562Z,1.60
2018-07-02T03:39:49.996Z,1.27
2018-07-02T03:40:55.720Z,1.10
2018-07-02T03:42:01.135Z,1.40
2018-07-02T03:43:06.574Z,1.50
2018-07-02T03:44:12.156Z,1.20
2018-07-02T03:45:17.596Z,1.70
2018-07-02T03:46:23.025Z,1.47
2018-07-02T03:47:28.460Z,1.37
2018-07-02T03:48:33.885Z,1.43
2018-07-02T03:49:39.410Z,1.40
2018-07-02T03:50:44.854Z,2.03
2018-07-02T03:51:50.342Z,1.10
2018-07-02T03:52:56.316Z,1.57
2018-07-02T03:54:01.782Z,1.23
2018-07-02T03:55:07.246Z,1.23
2018-07-02T03:56:13.016Z,1.43
2018-07-02T03:57:18.448Z,1.30
2018-07-02T03:58:23.848Z,1.00
2018-07-02T03:59:29.416Z,1.40
2018-07-02T04:00:34.941Z,1.47
2018-07-02T04:01:40.529Z,1.37
2018-07-02T04:02:45.949Z,1.80
2018-07-02T04:03:51.573Z,1.30
2018-07-02T04:04:57.035Z,1.43
2018-07-02T04:06:02.429Z,1.40
2018-07-02T04:07:07.884Z,1.40
2018-07-02T04:08:13.297Z,1.00
2018-07-02T04:09:18.769Z,1.13
2018-07-02T04:10:24.248Z,1.50
2018-07-02T04:11:29.938Z,1.53
2018-07-02T04:12:35.580Z,1.30
2018-07-02T04:13:41.142Z,1.60
2018-07-02T04:14:46.549Z,1.37
2018-07-02T04:15:51.757Z,1.40
2018-07-02T04:16:57.061Z,1.30
2018-07-02T04:18:02.457Z,1.57
2018-07-02T04:19:12.221Z,1.37
2018-07-02T04:20:17.856Z,1.20
2018-07-02T04:21:23.372Z,1.17
2018-07-02T04:22:28.820Z,1.20
2018-07-02T04:23:34.248Z,1.30
2018-07-02T04:24:39.732Z,1.07
2018-07-02T04:25:45.138Z,1.33
2018-07-02T04:26:50.524Z,1.20
2018-07-02T04:27:56.032Z,1.50
2018-07-02T04:29:01.571Z,1.20
2018-07-02T04:30:07.395Z,1.17
2018-07-02T04:31:12.970Z,1.10
2018-07-02T04:32:18.468Z,1.10
2018-07-02T04:33:23.874Z,1.10
2018-07-02T04:34:29.292Z,1.20
2018-07-02T04:35:34.740Z,1.37
2018-07-02T04:36:40.151Z,1.07
2018-07-02T04:37:45.583Z,1.03
2018-07-02T04:38:51.152Z,0.83
2018-07-02T04:39:56.816Z,1.27
2018-07-02T04:41:02.229Z,1.27
2018-07-02T04:42:07.992Z,1.50
2018-07-02T04:43:13.528Z,1.10
2018-07-02T04:44:18.955Z,1.10
2018-07-02T04:45:24.565Z,1.20
2018-07-02T04:46:29.976Z,1.23
2018-07-02T04:47:35.356Z,1.20
2018-07-02T04:48:40.749Z,1.27
2018-07-02T04:49:46.161Z,1.53
2018-07-02T04:50:51.613Z,1.20
2018-07-02T04:51:57.044Z,1.60
2018-07-02T04:53:02.457Z,1.10
2018-07-02T04:54:07.883Z,1.10
2018-07-02T04:55:13.324Z,1.50
2018-07-02T04:56:18.838Z,1.10
2018-07-02T04:57:24.402Z,1.10
2018-07-02T04:58:29.792Z,1.30
2018-07-02T04:59:35.555Z,1.13
2018-07-02T05:00:40.962Z,1.00
2018-07-02T05:01:46.393Z,1.70
2018-07-02T05:02:51.838Z,1.70
2018-07-02T05:03:57.472Z,1.20
2018-07-02T05:05:02.897Z,1.00
2018-07-02T05:06:09.081Z,1.00
2018-07-02T05:07:14.481Z,1.03
2018-07-02T05:08:20.024Z,1.10
2018-07-02T05:09:25.430Z,1.60
2018-07-02T05:10:30.820Z,1.20
2018-07-02T05:11:36.351Z,1.20
2018-07-02T05:12:41.950Z,0.93
2018-07-02T05:13:47.405Z,1.27
2018-07-02T05:14:52.828Z,1.10
2018-07-02T05:15:58.203Z,1.67
2018-07-02T05:17:03.669Z,1.30
2018-07-02T05:18:09.056Z,1.23
2018-07-02T05:19:14.631Z,0.90
2018-07-02T05:20:20.021Z,1.13
2018-07-02T05:21:25.412Z,1.10
2018-07-02T05:22:30.785Z,1.00
2018-07-02T05:23:36.252Z,1.03
2018-07-02T05:24:41.935Z,0.97
2018-07-02T05:25:47.124Z,1.30
2018-07-02T05:26:52.906Z,1.60
2018-07-02T05:27:58.306Z,1.00
2018-07-02T05:29:03.733Z,1.00
2018-07-02T05:30:09.173Z,1.07
2018-07-02T05:31:14.610Z,1.00
2018-07-02T05:32:20.026Z,0.93
2018-07-02T05:33:25.480Z,0.90
2018-07-02T05:34:30.906Z,0.97
2018-07-02T05:35:36.308Z,1.07
2018-07-02T05:36:41.724Z,1.10
2018-07-02T05:37:47.199Z,1.27
2018-07-02T05:38:52.632Z,0.80
2018-07-02T05:39:58.000Z,0.90
2018-07-02T05:41:03.400Z,1.00
2018-07-02T05:42:08.845Z,1.10
2018-07-02T05:43:14.256Z,0.77
2018-07-02T05:44:20.173Z,1.00
2018-07-02T05:45:25.676Z,0.93
2018-07-02T05:46:31.057Z,0.80
2018-07-02T05:47:36.448Z,0.90
2018-07-02T05:48:41.885Z,1.00
2018-07-02T05:49:47.450Z,0.90
2018-07-02T05:50:52.853Z,0.93
2018-07-02T05:51:58.274Z,0.80
2018-07-02T05:53:03.661Z,1.00
2018-07-02T05:54:09.052Z,1.23
2018-07-02T05:55:14.448Z,0.80
2018-07-02T05:56:19.844Z,0.80
2018-07-02T05:57:25.408Z,1.00
2018-07-02T05:58:30.826Z,0.90
2018-07-02T05:59:36.258Z,1.27
2018-07-02T06:00:41.667Z,1.00
2018-07-02T06:01:47.062Z,0.80
2018-07-02T06:02:52.487Z,0.97
2018-07-02T06:03:58.127Z,0.90
2018-07-02T06:05:03.489Z,1.30
2018-07-02T06:06:08.987Z,0.80
2018-07-02T06:07:14.414Z,0.73
2018-07-02T06:08:19.802Z,1.20
2018-07-02T06:09:25.192Z,1.00
2018-07-02T06:10:30.597Z,0.80
2018-07-02T06:11:36.065Z,0.97
2018-07-02T06:12:41.476Z,0.73
2018-07-02T06:13:46.985Z,0.90
2018-07-02T06:14:52.593Z,1.03
2018-07-02T06:15:57.960Z,0.87
2018-07-02T06:17:03.387Z,0.83
2018-07-02T06:18:08.837Z,0.70
2018-07-02T06:19:14.229Z,1.07
2018-07-02T06:20:19.623Z,0.83
2018-07-02T06:21:25.049Z,0.90
2018-07-02T06:22:30.444Z,1.17
2018-07-02T06:23:35.859Z,1.00
2018-07-02T06:24:41.261Z,1.13
2018-07-02T06:25:46.678Z,1.00
2018-07-02T06:26:52.220Z,0.93
2018-07-02T06:27:57.620Z,1.00
2018-07-02T06:29:03.042Z,0.77
2018-07-02T06:30:08.501Z,1.23
2018-07-02T06:31:13.931Z,0.83
2018-07-02T06:32:19.572Z,0.90
2018-07-02T06:33:25.000Z,1.00
2018-07-02T06:34:30.413Z,1.20
2018-07-02T06:35:35.821Z,1.10
2018-07-02T06:36:41.663Z,0.90
2018-07-02T06:37:47.106Z,0.90
2018-07-02T06:38:52.477Z,1.00
2018-07-02T06:39:58.312Z,1.20
2018-07-02T06:41:03.696Z,1.20
2018-07-02T06:42:09.214Z,1.20
2018-07-02T06:43:14.589Z,0.90
2018-07-02T06:44:19.966Z,0.80
2018-07-02T06:45:25.522Z,1.30
2018-07-02T06:46:31.121Z,0.90
2018-07-02T06:47:36.584Z,0.80
2018-07-02T06:48:41.998Z,0.80
2018-07-02T06:49:47.373Z,1.17
2018-07-02T06:50:52.753Z,1.10
2018-07-02T06:51:58.196Z,1.03
2018-07-02T06:53:03.620Z,1.20
2018-07-02T06:54:09.103Z,0.70
2018-07-02T06:55:14.540Z,0.73
2018-07-02T06:56:19.998Z,0.83
2018-07-02T06:57:25.425Z,0.97
2018-07-02T06:58:30.805Z,0.90
2018-07-02T06:59:36.176Z,1.57
2018-07-02T07:00:41.597Z,0.93
2018-07-02T07:01:46.997Z,1.30
2018-07-02T07:02:52.383Z,0.70
2018-07-02T07:03:57.777Z,0.60
2018-07-02T07:05:03.326Z,1.10
2018-07-02T07:06:08.722Z,0.97
2018-07-02T07:07:14.125Z,0.70
2018-07-02T07:08:19.544Z,0.80
2018-07-02T07:09:24.974Z,0.80
2018-07-02T07:10:34.294Z,1.17
2018-07-02T07:11:41.725Z,1.00
2018-07-02T07:12:47.180Z,0.87
2018-07-02T07:13:52.860Z,0.80
2018-07-02T07:14:58.275Z,0.70
2018-07-02T07:16:03.798Z,0.77
2018-07-02T07:17:09.469Z,0.90
2018-07-02T07:18:14.886Z,0.70
2018-07-02T07:19:20.399Z,1.00
2018-07-02T07:20:25.848Z,0.93
2018-07-02T07:21:31.496Z,0.80
2018-07-02T07:22:37.384Z,0.90
2018-07-02T07:23:42.825Z,1.10
2018-07-02T07:24:48.221Z,1.20
2018-07-02T07:25:53.650Z,0.90
2018-07-02T07:26:59.088Z,0.90
2018-07-02T07:28:04.419Z,1.20
2018-07-02T07:29:09.776Z,1.13
2018-07-02T07:30:15.249Z,1.10
2018-07-02T07:31:20.649Z,1.10
2018-07-02T07:32:26.149Z,0.97
2018-07-02T07:33:31.589Z,1.20
2018-07-02T07:34:36.974Z,1.10
2018-07-02T07:35:42.426Z,1.10
2018-07-02T07:36:47.904Z,0.90
2018-07-02T07:37:53.341Z,1.00
2018-07-02T07:38:58.823Z,0.97
2018-07-02T07:40:04.317Z,0.70
2018-07-02T07:41:09.730Z,1.10
2018-07-02T07:42:15.210Z,1.00
2018-07-02T07:43:20.671Z,0.70
2018-07-02T07:44:25.807Z,0.70
2018-07-02T07:45:31.126Z,0.80
2018-07-02T07:46:36.543Z,1.00
2018-07-02T07:47:41.945Z,1.17
2018-07-02T07:48:47.345Z,0.97
2018-07-02T07:49:52.876Z,1.10
2018-07-02T07:50:58.362Z,0.83
2018-07-02T07:52:03.616Z,0.93
2018-07-02T07:53:08.966Z,0.90
2018-07-02T07:54:14.712Z,0.93
2018-07-02T07:55:20.246Z,1.07
2018-07-02T07:56:25.938Z,1.13
2018-07-02T07:57:31.491Z,1.30
2018-07-02T07:58:36.931Z,0.93
2018-07-02T07:59:42.359Z,1.10
2018-07-02T08:00:47.745Z,0.83
2018-07-02T08:01:53.230Z,1.10
2018-07-02T08:02:58.633Z,0.80
2018-07-02T08:04:04.138Z,1.23
2018-07-02T08:05:09.274Z,1.10
2018-07-02T08:06:14.706Z,0.87
2018-07-02T08:07:20.140Z,0.90
2018-07-02T08:08:25.575Z,1.23
2018-07-02T08:09:31.199Z,1.00
2018-07-02T08:10:36.719Z,0.80
2018-07-02T08:11:42.814Z,1.00
2018-07-02T08:12:48.400Z,1.00
2018-07-02T08:13:53.955Z,1.00
2018-07-02T08:14:59.363Z,0.70
2018-07-02T08:16:04.799Z,0.70
2018-07-02T08:17:10.192Z,0.90
2018-07-02T08:18:15.659Z,1.00
2018-07-02T08:19:21.081Z,1.27
2018-07-02T08:20:26.487Z,0.80
2018-07-02T08:21:31.924Z,0.93
2018-07-02T08:22:37.408Z,1.20
2018-07-02T08:23:42.864Z,1.17
2018-07-02T08:24:48.232Z,1.10
2018-07-02T08:25:53.682Z,1.33
2018-07-02T08:26:59.133Z,0.93
2018-07-02T08:28:04.667Z,1.13
2018-07-02T08:29:10.268Z,1.40
2018-07-02T08:30:15.724Z,1.00
2018-07-02T08:31:21.136Z,1.00
2018-07-02T08:32:26.538Z,1.50
2018-07-02T08:33:31.929Z,0.87
2018-07-02T08:34:37.521Z,1.30
2018-07-02T08:35:43.012Z,0.87
2018-07-02T08:36:48.535Z,0.80
2018-07-02T08:37:54.058Z,0.70
2018-07-02T08:38:59.504Z,0.90
2018-07-02T08:40:05.340Z,1.37
2018-07-02T08:41:10.744Z,0.90
2018-07-02T08:42:16.149Z,0.80
2018-07-02T08:43:21.556Z,1.00
2018-07-02T08:44:26.972Z,0.83
2018-07-02T08:45:32.376Z,0.70
2018-07-02T08:46:37.611Z,0.80
2018-07-02T08:47:42.571Z,1.20
2018-07-02T08:48:47.938Z,1.20
2018-07-02T08:49:53.341Z,0.80
2018-07-02T08:50:58.755Z,1.00
2018-07-02T08:52:04.236Z,0.83
2018-07-02T08:53:09.647Z,0.60
2018-07-02T08:54:15.259Z,1.00
2018-07-02T08:55:20.676Z,1.17
2018-07-02T08:56:26.150Z,0.93
2018-07-02T08:57:31.540Z,1.17
2018-07-02T08:58:37.012Z,0.90
2018-07-02T08:59:42.477Z,1.10
2018-07-02T09:00:47.925Z,1.13
2018-07-02T09:01:53.372Z,1.10
2018-07-02T09:02:58.790Z,0.90
2018-07-02T09:04:04.776Z,0.73
2018-07-02T09:05:10.192Z,1.03
2018-07-02T09:06:15.617Z,0.87
2018-07-02T09:07:21.033Z,1.03
2018-07-02T09:08:26.426Z,0.90
2018-07-02T09:09:31.997Z,0.93
2018-07-02T09:10:37.380Z,0.73
2018-07-02T09:11:42.468Z,1.70
2018-07-02T09:12:47.786Z,1.10
2018-07-02T09:13:53.537Z,0.70
2018-07-02T09:15:00.051Z,0.73
2018-07-02T09:16:06.211Z,0.77
2018-07-02T09:17:11.678Z,0.80
2018-07-02T09:18:17.090Z,1.13
2018-07-02T09:19:22.500Z,0.93
2018-07-02T09:20:27.894Z,0.70
2018-07-02T09:21:33.994Z,0.80
2018-07-02T09:22:39.405Z,0.93
2018-07-02T09:23:44.811Z,0.87
2018-07-02T09:24:49.952Z,0.67
2018-07-02T09:25:56.126Z,0.70
2018-07-02T09:27:01.513Z,0.70
2018-07-02T09:28:07.000Z,0.70
2018-07-02T09:29:12.589Z,0.60
2018-07-02T09:30:17.985Z,1.10
2018-07-02T09:31:23.436Z,0.77
2018-07-02T09:32:28.908Z,0.60
2018-07-02T09:33:34.413Z,0.70
2018-07-02T09:34:39.835Z,0.70
2018-07-02T09:35:45.267Z,0.60
2018-07-02T09:36:50.633Z,0.70
2018-07-02T09:37:56.059Z,0.80
2018-07-02T09:39:01.494Z,0.80
2018-07-02T09:40:06.946Z,0.70
2018-07-02T09:41:12.481Z,0.60
2018-07-02T09:42:17.885Z,0.70
2018-07-02T09:43:23.336Z,0.90
2018-07-02T09:44:28.747Z,0.80
2018-07-02T09:45:34.201Z,1.20
2018-07-02T09:46:39.621Z,0.70
2018-07-02T09:47:45.012Z,0.87
2018-07-02T09:48:50.392Z,0.80
2018-07-02T09:49:56.229Z,0.83
2018-07-02T09:51:01.644Z,0.70
2018-07-02T09:52:07.103Z,0.70
2018-07-02T09:53:12.513Z,0.50
2018-07-02T09:54:17.905Z,0.80
2018-07-02T09:55:23.324Z,0.90
2018-07-02T09:56:28.831Z,0.70
2018-07-02T09:57:34.348Z,0.80
2018-07-02T09:58:39.829Z,0.73
2018-07-02T09:59:45.213Z,1.30
2018-07-02T10:00:50.644Z,0.93
2018-07-02T10:01:56.504Z,0.97
2018-07-02T10:03:01.785Z,0.60
2018-07-02T10:04:07.681Z,0.77
2018-07-02T10:05:13.365Z,1.07
2018-07-02T10:06:18.616Z,0.83
2018-07-02T10:07:23.896Z,0.97
2018-07-02T10:08:29.342Z,0.90
2018-07-02T10:09:34.766Z,0.87
2018-07-02T10:10:40.246Z,0.60
2018-07-02T10:11:45.780Z,0.80
2018-07-02T10:12:51.169Z,0.90
2018-07-02T10:13:56.582Z,0.70
2018-07-02T10:15:02.025Z,0.73
2018-07-02T10:16:07.732Z,0.77
2018-07-02T10:17:13.278Z,0.63
2018-07-02T10:18:18.708Z,0.80
2018-07-02T10:19:24.173Z,0.67
2018-07-02T10:20:29.819Z,0.70
2018-07-02T10:21:35.285Z,0.70
2018-07-02T10:22:40.760Z,0.60
2018-07-02T10:23:46.323Z,0.87
2018-07-02T10:24:51.756Z,1.13
2018-07-02T10:25:57.235Z,0.70
2018-07-02T10:27:02.850Z,0.70
2018-07-02T10:28:08.306Z,0.80
2018-07-02T10:29:13.860Z,0.60
2018-07-02T10:30:19.206Z,0.73
2018-07-02T10:31:24.756Z,0.90
2018-07-02T10:32:30.461Z,0.70
2018-07-02T10:33:35.840Z,1.13
2018-07-02T10:34:41.291Z,0.93
2018-07-02T10:35:46.690Z,0.80
2018-07-02T10:36:52.105Z,1.10
2018-07-02T10:37:57.501Z,0.60
2018-07-02T10:39:03.750Z,0.70
2018-07-02T10:40:09.237Z,0.93
2018-07-02T10:41:14.668Z,1.03
2018-07-02T10:42:20.076Z,0.67
2018-07-02T10:43:25.491Z,0.60
2018-07-02T10:44:31.079Z,0.50
2018-07-02T10:45:36.479Z,0.70
2018-07-02T10:46:41.899Z,0.77
2018-07-02T10:47:47.340Z,0.60
2018-07-02T10:48:52.754Z,0.63
2018-07-02T10:49:58.169Z,0.50
2018-07-02T10:51:03.625Z,0.57
2018-07-02T10:52:09.212Z,0.50
2018-07-02T10:53:14.630Z,0.90
2018-07-02T10:54:20.013Z,0.87
2018-07-02T10:55:25.628Z,0.50
2018-07-02T10:56:30.796Z,0.70
2018-07-02T10:57:36.361Z,0.80
2018-07-02T10:58:41.811Z,0.70
2018-07-02T10:59:47.297Z,0.60
2018-07-02T11:00:52.785Z,0.57
2018-07-02T11:01:58.150Z,0.80
2018-07-02T11:03:03.659Z,0.57
2018-07-02T11:04:09.352Z,0.80
2018-07-02T11:05:14.861Z,0.70
2018-07-02T11:06:20.253Z,0.80
2018-07-02T11:07:25.653Z,0.70
2018-07-02T11:08:31.045Z,0.67
2018-07-02T11:09:36.907Z,0.50
2018-07-02T11:10:42.333Z,0.80
2018-07-02T11:11:47.737Z,0.50
2018-07-02T11:12:53.159Z,0.53
2018-07-02T11:13:58.564Z,0.67
2018-07-02T11:15:04.268Z,1.00
2018-07-02T11:16:09.688Z,0.87
2018-07-02T11:17:15.219Z,1.00
2018-07-02T11:18:20.590Z,1.37
2018-07-02T11:19:26.004Z,1.00
2018-07-02T11:20:31.453Z,0.50
2018-07-02T11:21:36.905Z,0.70
2018-07-02T11:22:42.675Z,0.87
2018-07-02T11:23:48.164Z,0.77
2018-07-02T11:24:53.909Z,0.60
2018-07-02T11:25:59.330Z,1.37
2018-07-02T11:27:05.041Z,0.70
2018-07-02T11:28:10.547Z,0.80
2018-07-02T11:29:15.708Z,0.80
2018-07-02T11:30:21.032Z,1.07
2018-07-02T11:31:26.481Z,0.90
2018-07-02T11:32:31.865Z,0.60
2018-07-02T11:33:38.312Z,0.57
2018-07-02T11:34:43.700Z,1.03
2018-07-02T11:35:49.077Z,0.60
2018-07-02T11:36:54.479Z,0.50
2018-07-02T11:37:59.866Z,0.70
2018-07-02T11:39:08.840Z,0.70
2018-07-02T11:40:14.362Z,0.93
2018-07-02T11:41:19.745Z,0.60
2018-07-02T11:42:25.139Z,0.70
2018-07-02T11:43:30.531Z,0.60
2018-07-02T11:44:35.942Z,0.60
2018-07-02T11:45:41.342Z,0.87
2018-07-02T11:46:47.278Z,0.60
2018-07-02T11:47:52.648Z,0.67
2018-07-02T11:48:58.061Z,1.00
2018-07-02T11:50:03.514Z,0.40
2018-07-02T11:51:08.914Z,0.80
2018-07-02T11:52:14.464Z,0.60
2018-07-02T11:53:19.861Z,0.57
2018-07-02T11:54:25.389Z,0.70
2018-07-02T11:55:30.928Z,0.70
2018-07-02T11:56:36.358Z,0.60
2018-07-02T11:57:41.944Z,0.70
2018-07-02T11:58:47.315Z,1.03
2018-07-02T11:59:52.680Z,0.53
2018-07-02T12:00:58.062Z,0.50
2018-07-02T12:02:03.463Z,0.70
2018-07-02T12:03:09.080Z,0.40
2018-07-02T12:04:14.480Z,0.97
2018-07-02T12:05:19.848Z,0.63
2018-07-02T12:06:25.244Z,0.60
2018-07-02T12:07:30.628Z,0.50
2018-07-02T12:08:36.171Z,0.50
2018-07-02T12:09:41.554Z,0.70
2018-07-02T12:10:46.992Z,0.60
2018-07-02T12:11:52.428Z,0.57
2018-07-02T12:12:57.815Z,0.70
2018-07-02T12:14:04.037Z,0.50
2018-07-02T12:15:09.494Z,0.40
2018-07-02T12:16:14.880Z,0.40
2018-07-02T12:17:20.328Z,0.47
2018-07-02T12:18:25.803Z,0.60
2018-07-02T12:19:31.764Z,0.67
2018-07-02T12:20:37.191Z,0.80
2018-07-02T12:21:42.672Z,0.53
2018-07-02T12:22:48.137Z,0.47
2018-07-02T12:23:53.512Z,0.50
2018-07-02T12:24:58.890Z,0.47
2018-07-02T12:26:04.378Z,0.70
2018-07-02T12:27:10.286Z,0.80
2018-07-02T12:28:15.684Z,0.50
2018-07-02T12:29:21.072Z,0.93
2018-07-02T12:30:26.476Z,0.50
2018-07-02T12:31:31.860Z,0.60
2018-07-02T12:32:37.589Z,0.53
2018-07-02T12:33:42.976Z,0.90
2018-07-02T12:34:48.366Z,0.40
2018-07-02T12:35:53.766Z,0.40
2018-07-02T12:36:59.148Z,0.53
2018-07-02T12:38:04.588Z,0.50
2018-07-02T12:39:13.153Z,0.60
2018-07-02T12:40:18.545Z,0.47
2018-07-02T12:41:23.925Z,0.60
2018-07-02T12:42:29.349Z,0.53
2018-07-02T12:43:34.894Z,0.50
2018-07-02T12:44:40.321Z,0.57
2018-07-02T12:45:45.697Z,0.40
2018-07-02T12:46:51.147Z,1.00
2018-07-02T12:47:56.643Z,0.50
2018-07-02T12:49:02.196Z,0.50
2018-07-02T12:50:08.242Z,0.70
2018-07-02T12:51:13.656Z,0.60
2018-07-02T12:52:19.113Z,0.60
2018-07-02T12:53:24.487Z,0.70
2018-07-02T12:54:29.951Z,0.70
2018-07-02T12:55:35.301Z,0.60
2018-07-02T12:56:40.577Z,0.57
2018-07-02T12:57:45.972Z,0.60
2018-07-02T12:58:51.356Z,0.90
2018-07-02T12:59:56.421Z,0.50
2018-07-02T13:01:01.754Z,0.80
2018-07-02T13:02:07.562Z,0.63
2018-07-02T13:03:13.010Z,0.57
2018-07-02T13:04:18.185Z,0.60
2018-07-02T13:05:23.473Z,0.50
2018-07-02T13:06:28.548Z,0.40
2018-07-02T13:07:33.832Z,0.40
2018-07-02T13:08:39.273Z,0.70
2018-07-02T13:09:44.680Z,0.40
2018-07-02T13:10:50.124Z,0.50
2018-07-02T13:11:55.533Z,0.40
2018-07-02T13:13:00.962Z,0.40
2018-07-02T13:14:07.733Z,0.70
2018-07-02T13:15:13.197Z,0.70
2018-07-02T13:16:18.592Z,0.70
2018-07-02T13:17:24.198Z,0.63
2018-07-02T13:18:29.606Z,0.70
2018-07-02T13:19:35.042Z,0.50
2018-07-02T13:20:40.514Z,0.60
2018-07-02T13:21:45.867Z,0.50
2018-07-02T13:22:51.318Z,0.70
2018-07-02T13:23:56.780Z,0.60
2018-07-02T13:25:02.183Z,0.50
2018-07-02T13:26:07.626Z,0.60
2018-07-02T13:27:13.172Z,0.50
2018-07-02T13:28:18.606Z,0.40
2018-07-02T13:29:24.010Z,0.90
2018-07-02T13:30:29.425Z,0.50
2018-07-02T13:31:34.932Z,0.40
2018-07-02T13:32:40.336Z,0.50
2018-07-02T13:33:45.864Z,1.03
2018-07-02T13:34:51.753Z,0.53
2018-07-02T13:35:57.183Z,0.70
2018-07-02T13:37:02.592Z,0.60
2018-07-02T13:38:08.052Z,0.50
2018-07-02T13:39:13.440Z,0.50
2018-07-02T13:40:18.962Z,0.50
2018-07-02T13:41:24.393Z,0.70
2018-07-02T13:42:29.804Z,0.60
2018-07-02T13:43:35.221Z,0.50
2018-07-02T13:44:40.743Z,0.50
2018-07-02T13:45:46.140Z,0.50
2018-07-02T13:46:51.541Z,0.50
2018-07-02T13:47:56.909Z,0.50
2018-07-02T13:49:02.383Z,0.70
2018-07-02T13:50:08.098Z,0.80
2018-07-02T13:51:13.542Z,0.40
2018-07-02T13:52:18.887Z,0.70
2018-07-02T13:53:24.288Z,0.60
2018-07-02T13:54:29.737Z,0.80
2018-07-02T13:55:35.290Z,0.40
2018-07-02T13:56:40.694Z,0.40
2018-07-02T13:57:46.117Z,0.60
2018-07-02T13:58:51.596Z,0.60
2018-07-02T13:59:56.992Z,0.53
2018-07-02T14:01:02.426Z,0.50
2018-07-02T14:02:08.031Z,0.40
2018-07-02T14:03:13.673Z,0.50
2018-07-02T14:04:19.093Z,0.87
2018-07-02T14:05:24.505Z,0.40
2018-07-02T14:06:29.665Z,0.53
2018-07-02T14:07:35.165Z,0.70
2018-07-02T14:08:40.589Z,0.47
2018-07-02T14:09:46.426Z,0.40
2018-07-02T14:10:51.826Z,0.73
2018-07-02T14:11:57.306Z,0.47
2018-07-02T14:13:02.695Z,0.30
2018-07-02T14:14:08.125Z,0.50
2018-07-02T14:15:13.560Z,0.60
2018-07-02T14:16:18.961Z,0.50
2018-07-02T14:17:24.422Z,0.60
2018-07-02T14:18:29.856Z,0.47
2018-07-02T14:19:35.279Z,0.50
2018-07-02T14:20:40.687Z,0.50
2018-07-02T14:21:46.340Z,0.77
2018-07-02T14:22:51.741Z,0.50
2018-07-02T14:23:57.160Z,0.60
2018-07-02T14:25:02.903Z,0.50
2018-07-02T14:26:08.374Z,0.50
2018-07-02T14:27:13.792Z,0.70
2018-07-02T14:28:19.177Z,0.40
2018-07-02T14:29:24.641Z,0.70
2018-07-02T14:30:30.469Z,0.40
2018-07-02T14:31:35.880Z,0.53
2018-07-02T14:32:41.299Z,0.83